Time;durP1;ratioP1;P1;durP2;ratioP2;P2;SDS_P1;SDS_P2;PMS_P1;PMS_P2;Temp;Humidity;BMP_temperature;BMP_pressure;BME280_temperature;BME280_humidity;BME280_pressure;Samples;Min_cycle;Max_cycle;Signal;HPM_P1;HPM_P2
2022/08/13 00:02:19;;;;;;;8.30;7.50;;;;;;;;;;110332;1256;35692;-35
2022/08/13 00:04:56;;;;;;;8.90;7.50;;;;;;;;;;110313;1248;34034;-35
2022/08/13 00:07:30;;;;;;;9.30;8.10;;;;;;;;;;110347;1254;33342;-35
2022/08/13 00:10:05;;;;;;;8.50;7.60;;;;;;;;;;110336;1255;33886;-35
2022/08/13 00:15:29;;;;;;;8.30;7.10;;;;;;;;;;110293;1254;35779;-35
2022/08/13 00:17:59;;;;;;;;;;;;;;;;;;110351;1254;34141;-35
2022/08/13 00:20:33;;;;;;;8.80;7.90;;;;;;;;;;110372;1246;35338;-35
2022/08/13 00:23:06;;;;;;;9.00;8.10;;;;;;;;;;110379;1256;35634;-35
2022/08/13 00:25:38;;;;;;;8.90;8.00;;;;;;;;;;110358;1249;33819;-35
2022/08/13 00:28:08;;;;;;;8.10;7.30;;;;;;;;;;110358;1248;34042;-35
2022/08/13 00:30:39;;;;;;;8.60;7.70;;;;;;;;;;110380;1256;33946;-35
2022/08/13 00:33:12;;;;;;;9.30;7.90;;;;;;;;;;110370;1255;34001;-35
2022/08/13 00:35:42;;;;;;;;;;;;;;;;;;110355;1249;35743;-35
2022/08/13 00:38:13;;;;;;;9.70;8.70;;;;;;;;;;110258;1249;33347;-35
2022/08/13 00:40:49;;;;;;;9.00;7.90;;;;;;;;;;110318;1254;34220;-35
2022/08/13 00:43:22;;;;;;;8.90;8.00;;;;;;;;;;110315;1255;34354;-35
2022/08/13 00:45:54;;;;;;;9.50;8.50;;;;;;;;;;110372;1254;33982;-35
2022/08/13 00:48:43;;;;;;;9.70;8.50;;;;;;;;;;110379;1250;33769;-35
2022/08/13 00:51:16;;;;;;;10.30;8.10;;;;;;;;;;110386;1255;33277;-35
2022/08/13 00:53:45;;;;;;;;;;;;;;;;;;110339;1256;34532;-35
2022/08/13 00:56:19;;;;;;;10.00;8.10;;;;;;;;;;110368;1256;34070;-35
2022/08/13 00:59:07;;;;;;;9.10;8.10;;;;;;;;;;110340;1254;34771;-35
2022/08/13 01:01:39;;;;;;;9.00;8.10;;;;;;;;;;110339;1247;33751;-35
2022/08/13 01:04:12;;;;;;;9.40;8.40;;;;;;;;;;110344;1248;33152;-35
2022/08/13 01:06:50;;;;;;;9.10;8.20;;;;;;;;;;110345;1256;33538;-35
2022/08/13 01:09:21;;;;;;;9.70;8.70;;;;;;;;;;110351;1256;33898;-35
2022/08/13 01:11:55;;;;;;;9.10;7.80;;;;;;;;;;110360;1250;33026;-35
2022/08/13 01:14:29;;;;;;;9.20;8.30;;;;;;;;;;110410;1246;33540;-36
2022/08/13 01:17:02;;;;;;;9.20;8.30;;;;;;;;;;110375;1255;34055;-35
2022/08/13 01:19:34;;;;;;;9.20;8.20;;;;;;;;;;110314;1256;34029;-35
2022/08/13 01:22:05;;;;;;;9.30;8.20;;;;;;;;;;110353;1248;33619;-35
2022/08/13 01:24:40;;;;;;;10.40;9.30;;;;;;;;;;110356;1248;33987;-35
2022/08/13 01:27:13;;;;;;;9.40;8.50;;;;;;;;;;110335;1250;34243;-34
2022/08/13 01:29:47;;;;;;;9.80;8.80;;;;;;;;;;109881;1248;621699;-35
2022/08/13 01:32:21;;;;;;;9.20;8.30;;;;;;;;;;110355;1256;35481;-35
2022/08/13 01:34:55;;;;;;;8.90;8.00;;;;;;;;;;110322;1255;34132;-35
2022/08/13 01:37:28;;;;;;;9.30;8.30;;;;;;;;;;110282;1249;34005;-35
2022/08/13 01:40:05;;;;;;;9.50;8.40;;;;;;;;;;110320;1249;33782;-34
2022/08/13 01:42:47;;;;;;;9.60;8.40;;;;;;;;;;110314;1254;33779;-33
2022/08/13 01:45:21;;;;;;;10.10;8.60;;;;;;;;;;110316;1248;33953;-33
2022/08/13 01:50:40;;;;;;;9.60;8.20;;;;;;;;;;110362;1254;34097;-33
2022/08/13 01:53:16;;;;;;;9.90;8.70;;;;;;;;;;110385;1250;33288;-34
2022/08/13 01:55:49;;;;;;;9.80;8.40;;;;;;;;;;110305;1254;34362;-34
2022/08/13 01:58:22;;;;;;;9.50;8.40;;;;;;;;;;110324;1253;33487;-34
2022/08/13 02:00:56;;;;;;;9.20;8.20;;;;;;;;;;110378;1256;34635;-34
2022/08/13 02:03:25;;;;;;;;;;;;;;;;;;110343;1255;35742;-34
2022/08/13 02:05:57;;;;;;;10.30;8.50;;;;;;;;;;110303;1249;33553;-34
2022/08/13 02:08:28;;;;;;;9.50;7.90;;;;;;;;;;110360;1247;33747;-35
2022/08/13 02:10:58;;;;;;;9.10;8.00;;;;;;;;;;110317;1256;34143;-35
2022/08/13 02:13:29;;;;;;;9.60;8.70;;;;;;;;;;110334;1255;33413;-35
2022/08/13 02:16:00;;;;;;;9.10;8.20;;;;;;;;;;110348;1249;33715;-35
2022/08/13 02:18:32;;;;;;;10.20;8.80;;;;;;;;;;110316;1250;33965;-34
2022/08/13 02:21:04;;;;;;;8.60;7.70;;;;;;;;;;110325;1256;33995;-35
2022/08/13 02:23:36;;;;;;;9.10;8.10;;;;;;;;;;110326;1256;34007;-35
2022/08/13 02:26:07;;;;;;;8.90;7.90;;;;;;;;;;110292;1248;33954;-35
2022/08/13 02:28:39;;;;;;;9.50;7.90;;;;;;;;;;110327;1256;34844;-34
2022/08/13 02:31:12;;;;;;;9.80;8.70;;;;;;;;;;110328;1254;33320;-35
2022/08/13 02:33:45;;;;;;;8.90;8.00;;;;;;;;;;110313;1250;33608;-35
2022/08/13 02:36:21;;;;;;;8.90;7.10;;;;;;;;;;110306;1250;33904;-35
2022/08/13 02:38:56;;;;;;;9.40;8.20;;;;;;;;;;110336;1248;33289;-35
2022/08/13 02:41:40;;;;;;;9.00;8.10;;;;;;;;;;110349;1248;33740;-35
2022/08/13 02:44:14;;;;;;;8.90;8.00;;;;;;;;;;110394;1249;33560;-35
2022/08/13 02:46:49;;;;;;;8.60;7.70;;;;;;;;;;110340;1248;33891;-35
2022/08/13 02:49:23;;;;;;;8.20;7.40;;;;;;;;;;110357;1253;34012;-35
2022/08/13 02:51:54;;;;;;;9.30;7.90;;;;;;;;;;110201;1254;35788;-33
2022/08/13 02:54:28;;;;;;;8.30;7.40;;;;;;;;;;110183;1249;34031;-33
2022/08/13 02:57:01;;;;;;;8.60;7.60;;;;;;;;;;110345;1249;33740;-33
2022/08/13 02:59:32;;;;;;;9.50;8.00;;;;;;;;;;110310;1248;34276;-33
2022/08/13 03:02:05;;;;;;;8.70;7.50;;;;;;;;;;110320;1248;33305;-33
2022/08/13 03:04:43;;;;;;;9.00;8.10;;;;;;;;;;110366;1256;34661;-34
2022/08/13 03:07:14;;;;;;;8.80;7.70;;;;;;;;;;110304;1256;34544;-34
2022/08/13 03:09:46;;;;;;;9.70;8.40;;;;;;;;;;110315;1253;33888;-34
2022/08/13 03:12:18;;;;;;;8.80;7.40;;;;;;;;;;110381;1256;32279;-34
2022/08/13 03:14:49;;;;;;;9.20;8.20;;;;;;;;;;110330;1255;33151;-34
2022/08/13 03:17:20;;;;;;;10.40;8.70;;;;;;;;;;110301;1249;33842;-34
2022/08/13 03:19:51;;;;;;;9.90;7.90;;;;;;;;;;110333;1255;31495;-35
2022/08/13 03:22:22;;;;;;;9.10;8.20;;;;;;;;;;110352;1256;34256;-34
2022/08/13 03:24:53;;;;;;;9.70;7.90;;;;;;;;;;110355;1253;33802;-34
2022/08/13 03:27:26;;;;;;;9.30;7.90;;;;;;;;;;110324;1253;34022;-34
2022/08/13 03:29:57;;;;;;;9.10;8.20;;;;;;;;;;110360;1256;33493;-34
2022/08/13 03:32:31;;;;;;;9.80;8.50;;;;;;;;;;110344;1248;33601;-34
2022/08/13 03:35:03;;;;;;;9.40;7.90;;;;;;;;;;110349;1256;31983;-34
2022/08/13 03:37:37;;;;;;;8.60;7.60;;;;;;;;;;110333;1248;34558;-34
2022/08/13 03:40:20;;;;;;;10.30;8.40;;;;;;;;;;110362;1256;33998;-34
2022/08/13 03:42:51;;;;;;;10.30;7.50;;;;;;;;;;110314;1250;33814;-34
2022/08/13 03:45:24;;;;;;;8.20;7.30;;;;;;;;;;110350;1253;33564;-35
2022/08/13 03:47:55;;;;;;;8.70;7.80;;;;;;;;;;110335;1254;34443;-35
2022/08/13 03:50:26;;;;;;;10.50;8.00;;;;;;;;;;110366;1249;33705;-35
2022/08/13 03:53:02;;;;;;;8.40;7.40;;;;;;;;;;110349;1248;34091;-35
2022/08/13 03:55:33;;;;;;;8.50;7.70;;;;;;;;;;110358;1253;33553;-35
2022/08/13 03:58:04;;;;;;;8.90;7.40;;;;;;;;;;110330;1253;34118;-35
2022/08/13 04:00:37;;;;;;;8.90;7.60;;;;;;;;;;110293;1254;33698;-35
2022/08/13 04:03:19;;;;;;;9.30;8.00;;;;;;;;;;110382;1256;34755;-35
2022/08/13 04:05:52;;;;;;;8.20;7.30;;;;;;;;;;110353;1255;34230;-35
2022/08/13 04:08:23;;;;;;;8.40;7.50;;;;;;;;;;110318;1253;34252;-35
2022/08/13 04:10:54;;;;;;;7.50;6.70;;;;;;;;;;110346;1252;33298;-34
2022/08/13 04:13:25;;;;;;;8.20;7.10;;;;;;;;;;110315;1247;33936;-35
2022/08/13 04:15:56;;;;;;;9.60;8.20;;;;;;;;;;110328;1248;33776;-34
2022/08/13 04:18:31;;;;;;;8.10;7.30;;;;;;;;;;110360;1256;35694;-35
2022/08/13 04:21:03;;;;;;;8.20;6.90;;;;;;;;;;110336;1249;33121;-35
2022/08/13 04:23:34;;;;;;;8.00;6.90;;;;;;;;;;110343;1248;33821;-34
2022/08/13 04:26:06;;;;;;;7.40;6.70;;;;;;;;;;110389;1248;33567;-35
2022/08/13 04:28:38;;;;;;;7.40;6.50;;;;;;;;;;110293;1254;34492;-35
2022/08/13 04:31:12;;;;;;;7.30;6.30;;;;;;;;;;110312;1248;32940;-35
2022/08/13 04:33:43;;;;;;;8.30;6.40;;;;;;;;;;110351;1248;33928;-35
2022/08/13 04:36:16;;;;;;;8.10;6.90;;;;;;;;;;110320;1256;33994;-35
2022/08/13 04:38:46;;;;;;;8.40;6.40;;;;;;;;;;110326;1248;34106;-35
2022/08/13 04:41:17;;;;;;;7.50;6.70;;;;;;;;;;110206;1248;35345;-34
2022/08/13 04:43:47;;;;;;;8.10;6.80;;;;;;;;;;110328;1256;34745;-35
2022/08/13 04:46:18;;;;;;;8.10;7.00;;;;;;;;;;110308;1256;35737;-35
2022/08/13 04:48:48;;;;;;;7.70;6.90;;;;;;;;;;110355;1256;33576;-35
2022/08/13 04:51:23;;;;;;;7.60;6.80;;;;;;;;;;110311;1253;33458;-35
2022/08/13 04:53:53;;;;;;;7.60;6.80;;;;;;;;;;110353;1254;33923;-35
2022/08/13 04:56:25;;;;;;;7.50;6.40;;;;;;;;;;110332;1256;34114;-35
2022/08/13 04:58:58;;;;;;;8.80;6.70;;;;;;;;;;110345;1253;33854;-35
2022/08/13 05:01:29;;;;;;;7.70;6.90;;;;;;;;;;110335;1256;32912;-35
2022/08/13 05:03:59;;;;;;;10.00;6.60;;;;;;;;;;110330;1255;34237;-35
2022/08/13 05:06:33;;;;;;;9.50;6.70;;;;;;;;;;110343;1248;33374;-35
2022/08/13 05:09:03;;;;;;;9.20;6.50;;;;;;;;;;110351;1256;35611;-35
2022/08/13 05:11:34;;;;;;;8.10;6.90;;;;;;;;;;110314;1256;33827;-35
2022/08/13 05:14:06;;;;;;;7.60;6.80;;;;;;;;;;110327;1254;33810;-35
2022/08/13 05:16:37;;;;;;;7.90;6.20;;;;;;;;;;110346;1253;34436;-35
2022/08/13 05:19:08;;;;;;;10.30;7.30;;;;;;;;;;110383;1248;33401;-35
2022/08/13 05:21:41;;;;;;;9.40;6.50;;;;;;;;;;110336;1256;34020;-35
2022/08/13 05:24:11;;;;;;;8.30;6.70;;;;;;;;;;110311;1253;34001;-34
2022/08/13 05:26:43;;;;;;;8.40;7.00;;;;;;;;;;110341;1248;34215;-34
2022/08/13 05:29:14;;;;;;;8.50;6.70;;;;;;;;;;110329;1250;35587;-34
2022/08/13 05:31:45;;;;;;;8.40;6.80;;;;;;;;;;110340;1256;32661;-34
2022/08/13 05:34:15;;;;;;;9.80;6.30;;;;;;;;;;110356;1253;33308;-34
2022/08/13 05:36:46;;;;;;;8.80;6.60;;;;;;;;;;110348;1256;33834;-35
2022/08/13 05:39:16;;;;;;;8.90;6.80;;;;;;;;;;110358;1250;33720;-35
2022/08/13 05:41:48;;;;;;;8.30;6.40;;;;;;;;;;110329;1248;33924;-35
2022/08/13 05:44:21;;;;;;;10.70;7.10;;;;;;;;;;110315;1252;35654;-35
2022/08/13 05:46:52;;;;;;;9.60;6.70;;;;;;;;;;110406;1255;33408;-35
2022/08/13 05:49:23;;;;;;;9.90;6.70;;;;;;;;;;110306;1253;33821;-35
2022/08/13 05:51:54;;;;;;;8.20;6.50;;;;;;;;;;110353;1247;34339;-35
2022/08/13 05:54:24;;;;;;;10.20;6.60;;;;;;;;;;110331;1248;33830;-34
2022/08/13 05:56:55;;;;;;;9.10;6.00;;;;;;;;;;110333;1252;33738;-34
2022/08/13 06:05:03;;;;;;;7.40;6.10;;;;;;;;;;110366;1248;33694;-35
2022/08/13 06:07:34;;;;;;;8.60;6.30;;;;;;;;;;110377;1248;33552;-34
2022/08/13 06:10:06;;;;;;;9.80;6.70;;;;;;;;;;110374;1253;33492;-34
2022/08/13 06:12:38;;;;;;;9.20;6.70;;;;;;;;;;110377;1255;34767;-34
2022/08/13 06:15:12;;;;;;;9.50;6.30;;;;;;;;;;110380;1256;33102;-34
2022/08/13 06:17:43;;;;;;;8.70;6.10;;;;;;;;;;110233;1247;33801;-35
2022/08/13 06:20:14;;;;;;;9.30;6.30;;;;;;;;;;110324;1256;34017;-35
2022/08/13 06:22:47;;;;;;;12.70;7.10;;;;;;;;;;110373;1248;33840;-35
2022/08/13 06:25:19;;;;;;;10.30;6.60;;;;;;;;;;110319;1256;34409;-35
2022/08/13 06:27:50;;;;;;;11.70;6.70;;;;;;;;;;110310;1253;33448;-35
2022/08/13 06:30:21;;;;;;;10.50;7.00;;;;;;;;;;110321;1248;35205;-34
2022/08/13 06:32:59;;;;;;;11.80;6.70;;;;;;;;;;110351;1256;33644;-34
2022/08/13 06:35:31;;;;;;;12.50;7.40;;;;;;;;;;110350;1256;34818;-34
2022/08/13 06:38:06;;;;;;;11.40;6.80;;;;;;;;;;110350;1256;34246;-34
2022/08/13 06:40:40;;;;;;;9.80;7.00;;;;;;;;;;110316;1253;33829;-35
2022/08/13 06:43:11;;;;;;;9.70;6.70;;;;;;;;;;110339;1257;33802;-34
2022/08/13 06:45:42;;;;;;;10.30;6.80;;;;;;;;;;110315;1250;33442;-34
2022/08/13 06:48:13;;;;;;;10.40;7.10;;;;;;;;;;110313;1247;33712;-34
2022/08/13 06:50:44;;;;;;;8.10;7.20;;;;;;;;;;110329;1253;33575;-34
2022/08/13 06:53:17;;;;;;;8.10;6.50;;;;;;;;;;110340;1256;35532;-35
2022/08/13 06:55:50;;;;;;;7.20;6.10;;;;;;;;;;110311;1248;34082;-34
2022/08/13 06:58:25;;;;;;;9.90;6.70;;;;;;;;;;110317;1252;33706;-37
2022/08/13 07:00:58;;;;;;;8.90;7.40;;;;;;;;;;110386;1248;33863;-36
2022/08/13 07:03:32;;;;;;;8.90;6.30;;;;;;;;;;110366;1248;33268;-36
2022/08/13 07:06:03;;;;;;;8.80;6.40;;;;;;;;;;110299;1256;33255;-37
2022/08/13 07:08:34;;;;;;;9.50;6.50;;;;;;;;;;110369;1248;33857;-34
2022/08/13 07:11:23;;;;;;;8.90;6.50;;;;;;;;;;110318;1248;35353;-33
2022/08/13 07:13:55;;;;;;;8.00;6.30;;;;;;;;;;110384;1256;35398;-34
2022/08/13 07:16:30;;;;;;;7.40;6.40;;;;;;;;;;110380;1256;33675;-33
2022/08/13 07:19:10;;;;;;;7.80;6.90;;;;;;;;;;110397;1256;33707;-35
2022/08/13 07:21:42;;;;;;;6.90;6.10;;;;;;;;;;110362;1248;35575;-34
2022/08/13 07:24:13;;;;;;;8.50;6.30;;;;;;;;;;110351;1248;32599;-35
2022/08/13 07:26:45;;;;;;;9.00;6.70;;;;;;;;;;110345;1248;33710;-34
2022/08/13 07:29:19;;;;;;;8.10;6.00;;;;;;;;;;110403;1256;33204;-34
2022/08/13 07:31:53;;;;;;;9.10;7.00;;;;;;;;;;110343;1248;35489;-35
2022/08/13 07:34:28;;;;;;;7.30;6.40;;;;;;;;;;110351;1248;33929;-35
2022/08/13 07:36:59;;;;;;;7.70;6.80;;;;;;;;;;110296;1253;33825;-35
2022/08/13 07:39:33;;;;;;;9.10;6.60;;;;;;;;;;110327;1251;33430;-35
2022/08/13 07:42:05;;;;;;;8.20;6.60;;;;;;;;;;110256;1256;34291;-35
2022/08/13 07:44:40;;;;;;;9.60;6.60;;;;;;;;;;110302;1248;33785;-35
2022/08/13 07:47:14;;;;;;;6.90;6.10;;;;;;;;;;110269;1248;33666;-35
2022/08/13 07:49:46;;;;;;;7.90;5.90;;;;;;;;;;110254;1248;34178;-35
2022/08/13 07:52:17;;;;;;;7.30;5.80;;;;;;;;;;110297;1256;34240;-36
2022/08/13 07:54:49;;;;;;;6.50;5.90;;;;;;;;;;110295;1248;33392;-37
2022/08/13 07:57:20;;;;;;;9.90;6.30;;;;;;;;;;110266;1256;33885;-36
2022/08/13 07:59:51;;;;;;;6.80;6.10;;;;;;;;;;110299;1248;33784;-36
2022/08/13 08:02:22;;;;;;;8.20;6.20;;;;;;;;;;110322;1256;33710;-36
2022/08/13 08:04:53;;;;;;;8.50;6.10;;;;;;;;;;110336;1248;33322;-36
2022/08/13 08:07:26;;;;;;;7.90;6.20;;;;;;;;;;110331;1256;34092;-36
2022/08/13 08:09:59;;;;;;;7.70;5.90;;;;;;;;;;110349;1253;33270;-36
2022/08/13 08:12:35;;;;;;;7.10;5.60;;;;;;;;;;110324;1248;35550;-36
2022/08/13 08:15:10;;;;;;;7.20;6.00;;;;;;;;;;110284;1247;33468;-36
2022/08/13 08:17:44;;;;;;;7.50;5.90;;;;;;;;;;110346;1255;33898;-36
2022/08/13 08:20:23;;;;;;;7.50;6.30;;;;;;;;;;110239;1250;34094;-36
2022/08/13 08:22:56;;;;;;;6.50;5.40;;;;;;;;;;110178;1248;33675;-36
2022/08/13 08:25:26;;;;;;;7.30;5.60;;;;;;;;;;110358;1248;33854;-36
2022/08/13 08:27:57;;;;;;;6.40;5.80;;;;;;;;;;110313;1256;34363;-36
2022/08/13 08:30:28;;;;;;;6.30;5.50;;;;;;;;;;110287;1253;34000;-36
2022/08/13 08:32:58;;;;;;;8.30;5.60;;;;;;;;;;110305;1256;33852;-36
2022/08/13 08:35:29;;;;;;;6.10;5.40;;;;;;;;;;110305;1248;33267;-36
2022/08/13 08:43:41;;;;;;;8.70;6.10;;;;;;;;;;110326;1256;34590;-36
2022/08/13 08:46:11;;;;;;;7.40;5.80;;;;;;;;;;110287;1248;35255;-36
2022/08/13 08:48:42;;;;;;;6.70;5.90;;;;;;;;;;110293;1254;34426;-36
2022/08/13 08:51:13;;;;;;;7.60;5.80;;;;;;;;;;110295;1255;33908;-36
2022/08/13 08:53:44;;;;;;;7.70;6.30;;;;;;;;;;110273;1256;34179;-36
2022/08/13 08:56:18;;;;;;;8.60;5.90;;;;;;;;;;110298;1248;33631;-36
2022/08/13 08:58:49;;;;;;;8.00;6.50;;;;;;;;;;110322;1248;33689;-36
2022/08/13 09:01:24;;;;;;;8.00;6.00;;;;;;;;;;110331;1256;33860;-36
2022/08/13 09:03:56;;;;;;;8.20;6.40;;;;;;;;;;110346;1248;33657;-36
2022/08/13 09:06:31;;;;;;;8.80;6.60;;;;;;;;;;110301;1250;33670;-36
2022/08/13 09:09:03;;;;;;;8.20;6.30;;;;;;;;;;110331;1249;33643;-36
2022/08/13 09:11:38;;;;;;;7.80;5.80;;;;;;;;;;110313;1253;33811;-36
2022/08/13 09:14:10;;;;;;;8.00;6.20;;;;;;;;;;110329;1248;33638;-37
2022/08/13 09:16:41;;;;;;;7.70;6.70;;;;;;;;;;110326;1247;33853;-36
2022/08/13 09:19:14;;;;;;;8.70;6.20;;;;;;;;;;110171;1248;33625;-36
2022/08/13 09:21:48;;;;;;;8.90;6.60;;;;;;;;;;110324;1255;34240;-36
2022/08/13 09:24:24;;;;;;;7.70;6.60;;;;;;;;;;110371;1248;33332;-36
2022/08/13 09:26:56;;;;;;;8.60;6.70;;;;;;;;;;110200;1248;33818;-35
2022/08/13 09:29:27;;;;;;;9.50;6.50;;;;;;;;;;110303;1247;35233;-36
2022/08/13 09:32:05;;;;;;;11.30;6.90;;;;;;;;;;109902;1253;35245;-35
2022/08/13 09:34:37;;;;;;;10.60;7.10;;;;;;;;;;110332;1256;33891;-35
2022/08/13 09:37:08;;;;;;;9.70;7.40;;;;;;;;;;110380;1254;35465;-33
2022/08/13 09:39:44;;;;;;;8.50;6.90;;;;;;;;;;110292;1255;34551;-36
2022/08/13 09:42:23;;;;;;;8.00;6.90;;;;;;;;;;110409;1247;33978;-33
2022/08/13 09:44:56;;;;;;;7.90;7.00;;;;;;;;;;110424;1248;33429;-36
2022/08/13 09:47:28;;;;;;;7.70;6.90;;;;;;;;;;110402;1247;34095;-35
2022/08/13 09:50:01;;;;;;;9.50;7.30;;;;;;;;;;110415;1248;33280;-36
2022/08/13 09:52:32;;;;;;;7.70;6.90;;;;;;;;;;110379;1248;33930;-36
2022/08/13 09:55:05;;;;;;;7.80;7.00;;;;;;;;;;110477;1248;33835;-36
2022/08/13 09:57:51;;;;;;;9.50;8.60;;;;;;;;;;110462;1246;33464;-35
2022/08/13 10:00:24;;;;;;;8.80;8.00;;;;;;;;;;110458;1247;33567;-36
2022/08/13 10:02:59;;;;;;;9.70;8.80;;;;;;;;;;110471;1254;34037;-35
2022/08/13 10:05:34;;;;;;;8.70;7.80;;;;;;;;;;110395;1248;35457;-36
2022/08/13 10:08:07;;;;;;;10.40;9.40;;;;;;;;;;110448;1254;33226;-36
2022/08/13 10:10:37;;;;;;;9.60;8.70;;;;;;;;;;110426;1255;33692;-36
2022/08/13 10:13:08;;;;;;;10.10;9.10;;;;;;;;;;110402;1255;35336;-36
2022/08/13 10:15:39;;;;;;;9.40;8.50;;;;;;;;;;110419;1254;34098;-36
2022/08/13 10:18:10;;;;;;;9.20;8.20;;;;;;;;;;110423;1256;33930;-36
2022/08/13 10:20:45;;;;;;;9.40;8.00;;;;;;;;;;110409;1247;35593;-36
2022/08/13 10:23:17;;;;;;;8.60;7.80;;;;;;;;;;110385;1247;34012;-36
2022/08/13 10:25:49;;;;;;;8.20;7.50;;;;;;;;;;110309;1256;35776;-36
2022/08/13 10:28:26;;;;;;;8.10;7.20;;;;;;;;;;110322;1256;34404;-36
2022/08/13 10:30:57;;;;;;;8.10;7.30;;;;;;;;;;110314;1248;33628;-35
2022/08/13 10:33:33;;;;;;;9.20;8.20;;;;;;;;;;110375;1254;33322;-37
2022/08/13 10:36:05;;;;;;;8.70;7.70;;;;;;;;;;110332;1247;33910;-35
2022/08/13 10:38:36;;;;;;;8.50;7.40;;;;;;;;;;110385;1255;33414;-35
2022/08/13 10:41:07;;;;;;;8.30;7.40;;;;;;;;;;110411;1253;33647;-34
2022/08/13 10:43:38;;;;;;;8.20;7.40;;;;;;;;;;110449;1248;33810;-35
2022/08/13 10:46:12;;;;;;;8.60;7.20;;;;;;;;;;110379;1254;33294;-35
2022/08/13 10:48:43;;;;;;;9.40;8.20;;;;;;;;;;110398;1256;33748;-34
2022/08/13 10:51:13;;;;;;;8.80;7.80;;;;;;;;;;110436;1248;33250;-36
2022/08/13 10:53:58;;;;;;;9.50;8.50;;;;;;;;;;110442;1255;35289;-37
2022/08/13 10:56:30;;;;;;;8.40;7.60;;;;;;;;;;110252;1256;34580;-36
2022/08/13 10:59:03;;;;;;;9.20;7.80;;;;;;;;;;110426;1250;33717;-36
2022/08/13 11:01:34;;;;;;;8.70;7.30;;;;;;;;;;110440;1254;33640;-36
2022/08/13 11:04:06;;;;;;;8.30;7.50;;;;;;;;;;110424;1253;33710;-35
2022/08/13 11:06:37;;;;;;;9.30;8.50;;;;;;;;;;110455;1254;33269;-37
2022/08/13 11:09:10;;;;;;;8.00;7.20;;;;;;;;;;110387;1254;35489;-35
2022/08/13 11:11:42;;;;;;;8.70;7.80;;;;;;;;;;110436;1254;33701;-36
2022/08/13 11:14:15;;;;;;;9.20;7.80;;;;;;;;;;110451;1247;33645;-37
2022/08/13 11:17:04;;;;;;;9.30;7.80;;;;;;;;;;110436;1254;33235;-35
2022/08/13 11:19:34;;;;;;;10.00;8.80;;;;;;;;;;110386;1247;33980;-37
2022/08/13 11:22:06;;;;;;;8.40;7.60;;;;;;;;;;110426;1249;33893;-35
2022/08/13 11:24:40;;;;;;;8.60;7.60;;;;;;;;;;110438;1246;33713;-35
2022/08/13 11:27:11;;;;;;;8.80;7.70;;;;;;;;;;110417;1247;34063;-36
2022/08/13 11:29:42;;;;;;;8.80;7.60;;;;;;;;;;110397;1248;33602;-35
2022/08/13 11:32:12;;;;;;;8.60;7.80;;;;;;;;;;110377;1247;33781;-35
2022/08/13 11:34:43;;;;;;;8.30;7.30;;;;;;;;;;110364;1254;33986;-35
2022/08/13 11:37:14;;;;;;;8.00;7.20;;;;;;;;;;110387;1248;33660;-35
2022/08/13 11:39:45;;;;;;;8.50;7.60;;;;;;;;;;110378;1249;33969;-35
2022/08/13 11:42:15;;;;;;;8.30;7.50;;;;;;;;;;110387;1254;33846;-35
2022/08/13 11:44:46;;;;;;;8.20;7.40;;;;;;;;;;110380;1250;33907;-35
2022/08/13 11:47:17;;;;;;;8.30;7.50;;;;;;;;;;110351;1248;33650;-35
2022/08/13 11:49:48;;;;;;;8.60;7.70;;;;;;;;;;110396;1250;33869;-35
2022/08/13 11:52:18;;;;;;;8.20;7.40;;;;;;;;;;110397;1247;34175;-35
2022/08/13 11:54:49;;;;;;;10.10;7.70;;;;;;;;;;110384;1251;33494;-35
2022/08/13 11:57:20;;;;;;;8.60;7.50;;;;;;;;;;110407;1253;33683;-35
2022/08/13 11:59:51;;;;;;;8.40;7.60;;;;;;;;;;110449;1254;35574;-33
2022/08/13 12:02:21;;;;;;;8.40;7.40;;;;;;;;;;110381;1255;33951;-33
2022/08/13 12:04:52;;;;;;;8.30;7.50;;;;;;;;;;110413;1248;33860;-33
2022/08/13 12:07:25;;;;;;;8.90;7.90;;;;;;;;;;110407;1248;33668;-34
2022/08/13 12:09:55;;;;;;;9.30;8.40;;;;;;;;;;110366;1254;33797;-35
2022/08/13 12:12:26;;;;;;;8.90;8.00;;;;;;;;;;110402;1254;34657;-35
2022/08/13 12:14:57;;;;;;;9.00;8.10;;;;;;;;;;110397;1255;34017;-34
2022/08/13 12:17:28;;;;;;;9.20;8.40;;;;;;;;;;110427;1248;33794;-35
2022/08/13 12:19:59;;;;;;;9.60;8.70;;;;;;;;;;110397;1248;33631;-34
2022/08/13 12:22:30;;;;;;;9.10;8.10;;;;;;;;;;110401;1248;33571;-34
2022/08/13 12:25:00;;;;;;;9.30;8.00;;;;;;;;;;110443;1255;33860;-34
2022/08/13 12:27:31;;;;;;;10.30;9.30;;;;;;;;;;110430;1255;34174;-34
2022/08/13 12:30:02;;;;;;;12.10;9.60;;;;;;;;;;110413;1246;33742;-35
2022/08/13 12:32:32;;;;;;;10.70;8.90;;;;;;;;;;110433;1254;33917;-34
2022/08/13 12:35:03;;;;;;;10.80;9.30;;;;;;;;;;110433;1248;33925;-34
2022/08/13 12:37:33;;;;;;;9.50;8.50;;;;;;;;;;110401;1255;33886;-34
2022/08/13 12:40:09;;;;;;;10.10;8.30;;;;;;;;;;110417;1248;33332;-34
2022/08/13 12:42:39;;;;;;;10.50;8.90;;;;;;;;;;110389;1247;33831;-36
2022/08/13 12:45:13;;;;;;;10.60;8.50;;;;;;;;;;110357;1250;33246;-36
2022/08/13 12:47:45;;;;;;;9.90;8.30;;;;;;;;;;110414;1254;33895;-36
2022/08/13 12:50:16;;;;;;;10.40;9.30;;;;;;;;;;110394;1248;33946;-37
2022/08/13 12:52:46;;;;;;;9.80;8.60;;;;;;;;;;110389;1255;35679;-35
2022/08/13 12:55:17;;;;;;;8.50;7.60;;;;;;;;;;110410;1247;34121;-37
2022/08/13 12:57:47;;;;;;;8.90;8.00;;;;;;;;;;110437;1253;33296;-36
2022/08/13 13:00:18;;;;;;;10.10;8.60;;;;;;;;;;110403;1250;33959;-36
2022/08/13 13:02:49;;;;;;;9.50;8.60;;;;;;;;;;110441;1254;35725;-36
2022/08/13 13:05:20;;;;;;;9.30;8.40;;;;;;;;;;110431;1249;33981;-34
2022/08/13 13:07:53;;;;;;;9.70;8.70;;;;;;;;;;110424;1256;33830;-35
2022/08/13 13:10:23;;;;;;;9.30;8.30;;;;;;;;;;110408;1250;33355;-35
2022/08/13 13:12:54;;;;;;;9.50;8.60;;;;;;;;;;110417;1248;32793;-35
2022/08/13 13:15:25;;;;;;;9.90;8.70;;;;;;;;;;110407;1249;33772;-34
2022/08/13 13:17:56;;;;;;;8.80;7.90;;;;;;;;;;110314;1255;34306;-36
2022/08/13 13:20:26;;;;;;;8.20;7.40;;;;;;;;;;110408;1248;33758;-37
2022/08/13 13:22:57;;;;;;;9.80;7.80;;;;;;;;;;110412;1249;33358;-34
2022/08/13 13:25:28;;;;;;;10.00;8.10;;;;;;;;;;110440;1254;33995;-35
2022/08/13 13:28:04;;;;;;;9.30;8.00;;;;;;;;;;110413;1254;33399;-36
2022/08/13 13:30:34;;;;;;;10.20;8.30;;;;;;;;;;110391;1249;34237;-36
2022/08/13 13:33:06;;;;;;;9.20;8.30;;;;;;;;;;110343;1254;33397;-36
2022/08/13 13:35:38;;;;;;;9.00;8.10;;;;;;;;;;110393;1248;33710;-36
2022/08/13 13:38:09;;;;;;;9.50;8.30;;;;;;;;;;110334;1254;34798;-36
2022/08/13 13:40:43;;;;;;;10.60;8.20;;;;;;;;;;110356;1256;34191;-36
2022/08/13 13:43:14;;;;;;;9.40;8.00;;;;;;;;;;110367;1255;32626;-36
2022/08/13 13:45:45;;;;;;;10.90;8.40;;;;;;;;;;110338;1255;34035;-35
2022/08/13 13:48:24;;;;;;;8.10;7.10;;;;;;;;;;110387;1255;34521;-34
2022/08/13 13:50:56;;;;;;;9.10;7.80;;;;;;;;;;110398;1255;33682;-35
2022/08/13 13:53:28;;;;;;;8.90;7.70;;;;;;;;;;110345;1255;33938;-35
2022/08/13 13:55:59;;;;;;;11.90;7.80;;;;;;;;;;110414;1256;33999;-35
2022/08/13 13:58:33;;;;;;;9.40;8.10;;;;;;;;;;110397;1248;33800;-35
2022/08/13 14:01:04;;;;;;;10.30;8.50;;;;;;;;;;110358;1246;34159;-36
2022/08/13 14:03:36;;;;;;;8.60;7.70;;;;;;;;;;110341;1256;34049;-35
2022/08/13 14:06:08;;;;;;;10.50;8.60;;;;;;;;;;110364;1256;33484;-35
2022/08/13 14:08:39;;;;;;;9.90;8.00;;;;;;;;;;110247;1248;33984;-35
2022/08/13 14:11:10;;;;;;;12.10;8.10;;;;;;;;;;110350;1246;34274;-35
2022/08/13 14:13:42;;;;;;;9.20;7.40;;;;;;;;;;110353;1250;34096;-35
2022/08/13 14:16:15;;;;;;;8.80;7.60;;;;;;;;;;110363;1248;33842;-35
2022/08/13 14:18:46;;;;;;;9.00;8.00;;;;;;;;;;110369;1250;33672;-35
2022/08/13 14:21:18;;;;;;;8.60;7.40;;;;;;;;;;110351;1254;35710;-35
2022/08/13 14:23:49;;;;;;;9.00;7.70;;;;;;;;;;110345;1248;35449;-36
2022/08/13 14:26:24;;;;;;;10.30;8.20;;;;;;;;;;110399;1254;31937;-35
2022/08/13 14:28:55;;;;;;;8.20;7.40;;;;;;;;;;110363;1255;35654;-35
2022/08/13 14:31:26;;;;;;;9.10;8.20;;;;;;;;;;110320;1248;34028;-35
2022/08/13 14:33:57;;;;;;;9.10;7.40;;;;;;;;;;110327;1254;34209;-35
2022/08/13 14:36:31;;;;;;;7.90;7.10;;;;;;;;;;110189;1248;33387;-35
2022/08/13 14:39:06;;;;;;;8.00;7.10;;;;;;;;;;110406;1248;33699;-35
2022/08/13 14:41:41;;;;;;;8.30;7.40;;;;;;;;;;110321;1253;33875;-35
2022/08/13 14:44:15;;;;;;;8.00;7.20;;;;;;;;;;110352;1255;35683;-35
2022/08/13 14:46:48;;;;;;;8.00;7.20;;;;;;;;;;110369;1248;34140;-35
2022/08/13 14:49:20;;;;;;;8.90;8.10;;;;;;;;;;110353;1254;34073;-35
2022/08/13 14:51:52;;;;;;;8.50;7.70;;;;;;;;;;110400;1247;33912;-35
2022/08/13 14:54:24;;;;;;;9.20;8.20;;;;;;;;;;110360;1254;33343;-35
2022/08/13 14:56:55;;;;;;;8.20;7.40;;;;;;;;;;110347;1248;34217;-35
2022/08/13 14:59:25;;;;;;;8.00;7.20;;;;;;;;;;110358;1248;33715;-34
2022/08/13 15:01:56;;;;;;;8.50;7.70;;;;;;;;;;110360;1246;33624;-34
2022/08/13 15:04:27;;;;;;;8.60;7.80;;;;;;;;;;110390;1247;35399;-35
2022/08/13 15:06:59;;;;;;;8.20;7.40;;;;;;;;;;110343;1248;33981;-35
2022/08/13 15:09:30;;;;;;;8.40;7.60;;;;;;;;;;110303;1254;34014;-35
2022/08/13 15:12:01;;;;;;;7.90;7.10;;;;;;;;;;110321;1246;33855;-35
2022/08/13 15:14:32;;;;;;;8.20;7.40;;;;;;;;;;110326;1255;33392;-35
2022/08/13 15:17:06;;;;;;;8.30;7.50;;;;;;;;;;110324;1254;35571;-35